Aeroporto :
LOGIN :

Iscrizione | Disclaimer

   EN    FR    IT 

 










Sommario :    VFR   VFR Marginale   IFR   IFR Intensivo   IFR Molto Intensivo
Visibilità : 
Base nubi : 
>= 8 km
>= 3000ft
5 / 8 km
1000 / 3000 ft
1500m / 5 km
500 / 1000 ft
800 / 1500m
200 / 500 ft
< 800m
< 200 ft
Simboli :   Temporali  Nebbia  Neve Forte  Precipitazioni Forti  Vento > 20 kt
SIGMETs :   Varie  Temporali  Ghiacco  Turbolenza  Onda orograficha  Ceneri Vulcaniche






- Altitudine del aeroporto : 245 ft


ETHS - Fassberg

ULTIMO METAR :
  • 170620Z 29005KT 9999 SCT010 BKN033 14/12 Q1014 BLU BLU TEMPO GRN

METARs OBSOLETI :
  • 170520Z 30007KT 9999 SCT009 SCT015 BKN030 14/12 Q1014 BLU BLU TEMPO GRN
  • 170420Z 29007KT 9999 FEW008 BKN028 14/12 Q1013 BLU BLU TEMPO GRN
  • 170320Z 28006KT 9999 FEW008 BKN029 14/12 Q1013 BLU

TAF TAF ETHS
Valido dal 17 a 05 ore il 17 a 14 ore UTC


170419Z 1705/1714 29008KT 9999 NSW SCT008 BKN030
TEMPO 1705/1708 30010KT 4000 RADZ BKN008 BKN025



MetMap, La meteo Aeronautica in un colpo d'occhio ! - Copyright ORBIFLY Dicembre 2007 - Disclaimer

ORBIFLY MET'MAP TEAM :

Programmazione e sviluppo : Alexandra Zaïnal
Concezione : Baudouin d'Aumeries
Aiuto per la programmazione : Marc-Olivier Méhu
Supporto tecnico e logistico : Manuel Goepfert
Aiuto per la traduzione : Arnaldo La Scala

Contatto : metmap@orbifly.com




FONTI E CREDITI :

   NOAA